PRINT OUT SECTION, show ยป

TAF EPBY 161730Z 1618/1718 07005KT CAVOK=

TAF EPGD 161730Z 1618/1718 07010KT CAVOK
TEMPO 1623/1705 VRB02KT
BECMG 1712/1715 01012KT=

TAF EPKK 161730Z 1618/1718 04005KT CAVOK
PROB30 TEMPO 1709/1714 -SHRA BKN040CB=

TAF EPKT 161730Z 1618/1718 04005KT CAVOK
PROB30 TEMPO 1707/1713 -SHRA BKN035CB=

TAF EPLB 161730Z 1618/1718 VRB04KT CAVOK
BECMG 1708/1710 36010KT
PROB40 TEMPO 1712/1718 01017G27KT=

TAF EPLL 161730Z 1618/1718 07006KT CAVOK
BECMG 1712/1715 01010KT
PROB30 TEMPO 1712/1718 02015G25KT=

TAF EPMO 161730Z 1618/1718 VRB04KT CAVOK
BECMG 1705/1708 02010KT
PROB40 TEMPO 1712/1718 01017G27KT=

TAF EPPO 161730Z 1618/1718 08008KT CAVOK=

TAF EPRZ 161730Z 1618/1718 02006KT CAVOK=

TAF EPSC 161730Z 1618/1718 05008KT CAVOK=

TAF EPWA 161730Z 1618/1718 VRB04KT CAVOK
BECMG 1705/1708 02010KT
PROB40 TEMPO 1712/1718 01015G25KT=

TAF EPWR 161730Z 1618/1718 VRB02KT CAVOK
BECMG 1618/1621 08010KT
BECMG 1703/1706 VRB02KT
BECMG 1709/1712 03010KT=